Celtic Voyager — EIQN — position and weather

sailwx.info

Track history (hours):
 
Tides and Currents Weather Stations Pressure Air Temp Water Temp Dewpoint Dewpoint Depression Visibility Wind Speed Wind Dir Waves Ship Positions

Oceanographic research ship Celtic Voyager (Ireland)

Detailed information on ship capabilities available from University of Delaware's Ocean Information Center.

Last reported at 2017-Nov-20 00:07 UTC. Time now 2017-Nov-21 10:20 UTC.
Position N 51°54' W 008°27'.

Length 31 m; beam 8 m.

Type: Ship. MMSI: 250089000.

Date/timePositionNaut miles runAvg speedWind from/ knotsBaromVisibWave heightAir tempDewpointWater temp
2017-Nov-20 00:07N 51°54' W 008°27'0 0.0
2017-Nov-19 23:58N 51°54' W 008°27'0 0.0
2017-Nov-19 23:28N 51°54' W 008°27'0 0.0
2017-Nov-19 22:52N 51°54' W 008°27'0 0.0
2017-Nov-19 22:19N 51°54' W 008°27'0 0.0
2017-Nov-19 21:52N 51°54' W 008°27'0 0.0
2017-Nov-19 21:01N 51°54' W 008°27'0 0.0
2017-Nov-19 20:52N 51°54' W 008°27'0 0.0
2017-Nov-19 20:22N 51°54' W 008°27'0 0.0
2017-Nov-19 19:55N 51°54' W 008°27'0 0.0
2017-Nov-19 17:25N 51°54' W 008°27'0 0.0
2017-Nov-19 16:43N 51°54' W 008°27'0 0.4
2017-Nov-19 16:30N 51°54' W 008°27'3 6.9
2017-Nov-19 16:01N 51°53' W 008°22'4 7.7
2017-Nov-19 15:30N 51°51' W 008°17'1 1.2
2017-Nov-19 14:58N 51°51' W 008°16'0 0.0
2017-Nov-19 14:28N 51°51' W 008°16'0 0.0
2017-Nov-19 13:58N 51°51' W 008°16'0 0.9
2017-Nov-19 13:30N 51°50' W 008°16'1 1.3
2017-Nov-19 13:00N 51°49' W 008°16'0 0.3
2017-Nov-19 12:30N 51°50' W 008°16'0 0.3
2017-Nov-19 12:00N 51°50' W 008°16'1 2.6
2017-Nov-19 11:30N 51°51' W 008°17'2 3.3
2017-Nov-19 11:00N 51°51' W 008°20'2 3.9
2017-Nov-19 10:31N 51°53' W 008°20'0 0.3
2017-Nov-19 10:00N 51°53' W 008°21'3 6.8
2017-Nov-19 09:30N 51°54' W 008°26'1 2.0
2017-Nov-19 08:58N 51°54' W 008°27'0 0.0
2017-Nov-19 08:27N 51°54' W 008°27'0 0.0
2017-Nov-19 08:00N 51°54' W 008°27'0 0.0
2017-Nov-19 07:24N 51°54' W 008°27'0 0.0
2017-Nov-19 06:54N 51°54' W 008°27'0 0.0
2017-Nov-19 06:30N 51°54' W 008°27'0 0.0
2017-Nov-19 06:00N 51°54' W 008°27'0 0.0
2017-Nov-19 05:30N 51°54' W 008°27'0 0.0
2017-Nov-19 05:00N 51°54' W 008°27'0 0.0
2017-Nov-19 04:30N 51°54' W 008°27'0 0.0
2017-Nov-19 04:00N 51°54' W 008°27'0 0.0
2017-Nov-19 03:06N 51°54' W 008°27'0 0.0
2017-Nov-19 03:00N 51°54' W 008°27'0 0.0
2017-Nov-19 02:30N 51°54' W 008°27'0 0.0
2017-Nov-19 01:54N 51°54' W 008°27'0 0.0
2017-Nov-19 01:30N 51°54' W 008°27'0 0.0
2017-Nov-19 01:00N 51°54' W 008°27'0 0.0
2017-Nov-19 00:30N 51°54' W 008°27'0 0.0
2017-Nov-19 00:00N 51°54' W 008°27'0 0.0
2017-Nov-18 22:06N 51°54' W 008°27'0 0.0
2017-Nov-18 21:54N 51°54' W 008°27'0 0.0
2017-Nov-18 21:06N 51°54' W 008°27'0 0.0
2017-Nov-18 20:42N 51°54' W 008°27'0 0.0
2017-Nov-18 20:24N 51°54' W 008°27'0 0.0
2017-Nov-18 19:12N 51°54' W 008°27'0 0.0
2017-Nov-18 16:30N 51°54' W 008°27'2 3.7
2017-Nov-18 16:01N 51°54' W 008°24'4 8.8
2017-Nov-18 15:30N 51°51' W 008°20'3 6.8
2017-Nov-18 15:00N 51°48' W 008°16'510.4
2017-Nov-18 14:31N 51°43' W 008°15'5 9.8
2017-Nov-18 14:01N 51°38' W 008°15'2 3.8
2017-Nov-18 13:30N 51°36' W 008°15'1 2.6
2017-Nov-18 13:00N 51°38' W 008°15'3 5.2
2017-Nov-18 12:31N 51°40' W 008°15'4 8.3
2017-Nov-18 12:00N 51°44' W 008°15'2 4.8
2017-Nov-18 11:31N 51°47' W 008°16'4 8.1
2017-Nov-18 11:00N 51°51' W 008°16'1 2.2
2017-Nov-18 10:31N 51°51' W 008°18'1 1.4
2017-Nov-18 10:01N 51°51' W 008°19'4 8.1
2017-Nov-18 09:31N 51°54' W 008°23'3 5.7
2017-Nov-18 09:00N 51°54' W 008°27'0 0.0
2017-Nov-18 08:25N 51°54' W 008°27'0 0.0
2017-Nov-18 06:19N 51°54' W 008°27'0 0.0
2017-Nov-18 05:55N 51°54' W 008°27'0 0.0
2017-Nov-18 05:25N 51°54' W 008°27'0 0.0
2017-Nov-18 04:55N 51°54' W 008°27'0 0.0
2017-Nov-18 04:25N 51°54' W 008°27'0 0.0
2017-Nov-18 03:55N 51°54' W 008°27'0 0.0
2017-Nov-18 03:25N 51°54' W 008°27'0 0.0
2017-Nov-18 02:55N 51°54' W 008°27'0 0.0
2017-Nov-18 02:28N 51°54' W 008°27'0 0.0
2017-Nov-18 01:58N 51°54' W 008°27'0 0.0
2017-Nov-18 01:25N 51°54' W 008°27'0 0.0
2017-Nov-18 00:58N 51°54' W 008°27'0 0.0
2017-Nov-18 00:28N 51°54' W 008°27'0 0.0
2017-Nov-17 23:58N 51°54' W 008°27'0 0.0
2017-Nov-17 23:28N 51°54' W 008°27'0 0.0
2017-Nov-17 22:58N 51°54' W 008°27'0 0.0
2017-Nov-17 22:28N 51°54' W 008°27'0 0.0
2017-Nov-17 21:55N 51°54' W 008°27'0 0.0
2017-Nov-17 21:28N 51°54' W 008°27'0 0.0
2017-Nov-17 20:58N 51°54' W 008°27'0 0.0
2017-Nov-17 20:25N 51°54' W 008°27'0 0.0
2017-Nov-17 19:46N 51°54' W 008°27'0 0.0
2017-Nov-17 19:28N 51°54' W 008°27'0 0.0
2017-Nov-17 17:40N 51°54' W 008°27'0 0.2
2017-Nov-17 17:30N 51°54' W 008°27'4 7.2
2017-Nov-17 17:00N 51°53' W 008°22'3 5.2
2017-Nov-17 16:30N 51°51' W 008°20'2 4.9
2017-Nov-17 16:00N 51°50' W 008°16'5 9.8
2017-Nov-17 15:30N 51°45' W 008°15'4 8.6
2017-Nov-17 15:00N 51°42' W 008°11'2 4.8
2017-Nov-17 14:30N 51°40' W 008°08'0 0.8
2017-Nov-17 14:00N 51°41' W 008°08'0 0.1
2017-Nov-17 13:30N 51°41' W 008°08'1 2.7
2017-Nov-17 13:00N 51°41' W 008°10'3 6.9
2017-Nov-17 12:30N 51°43' W 008°15'4 8.1
2017-Nov-17 12:00N 51°47' W 008°16'2 4.5
2017-Nov-17 11:30N 51°50' W 008°16'1 2.9
2017-Nov-17 11:01N 51°51' W 008°18'0 0.1
2017-Nov-17 10:30N 51°51' W 008°18'1 2.4
2017-Nov-17 10:00N 51°50' W 008°19'4 7.8
2017-Nov-17 09:30N 51°54' W 008°23'3 5.6
2017-Nov-17 09:00N 51°54' W 008°27'0 0.0
2017-Nov-17 08:30N 51°54' W 008°27'0 0.0
2017-Nov-17 07:57N 51°54' W 008°27'0 0.0
2017-Nov-17 07:30N 51°54' W 008°27'0 0.0
2017-Nov-17 07:00N 51°54' W 008°27'0 0.0
2017-Nov-17 06:30N 51°54' W 008°27'0 0.0
2017-Nov-17 05:54N 51°54' W 008°27'0 0.0
2017-Nov-17 05:30N 51°54' W 008°27'0 0.0
2017-Nov-17 05:00N 51°54' W 008°27'0 0.0
2017-Nov-17 04:30N 51°54' W 008°27'0 0.0
2017-Nov-17 03:57N 51°54' W 008°27'0 0.0
2017-Nov-17 03:30N 51°54' W 008°27'0 0.0
2017-Nov-17 02:57N 51°54' W 008°27'0 0.0
2017-Nov-17 02:30N 51°54' W 008°27'0 0.0
2017-Nov-17 02:00N 51°54' W 008°27'0 0.0
2017-Nov-17 01:30N 51°54' W 008°27'0 0.0
2017-Nov-17 01:00N 51°54' W 008°27'0 0.0
2017-Nov-17 00:30N 51°54' W 008°27'0 0.0
2017-Nov-17 00:00N 51°54' W 008°27'0 0.0
2017-Nov-16 23:30N 51°54' W 008°27'0 0.0
2017-Nov-16 23:00N 51°54' W 008°27'0 0.0
2017-Nov-16 22:30N 51°54' W 008°27'0 0.0
2017-Nov-16 21:57N 51°54' W 008°27'0 0.0
2017-Nov-16 21:30N 51°54' W 008°27'0 0.0
2017-Nov-16 20:57N 51°54' W 008°27'0 0.0
2017-Nov-16 20:30N 51°54' W 008°27'0 0.0
2017-Nov-16 20:00N 51°54' W 008°27'0 0.0
2017-Nov-16 19:24N 51°54' W 008°27'0 0.0
2017-Nov-16 18:57N 51°54' W 008°27'0 0.0
2017-Nov-16 18:30N 51°54' W 008°27'0 0.0
2017-Nov-16 17:57N 51°54' W 008°27'0 0.0
2017-Nov-16 17:30N 51°54' W 008°27'0 0.0
2017-Nov-16 17:00N 51°54' W 008°27'1 2.1
2017-Nov-16 16:30N 51°54' W 008°26'2 4.0
2017-Nov-16 16:00N 51°54' W 008°23'3 6.5
2017-Nov-16 15:31N 51°51' W 008°20'2 3.1
2017-Nov-16 15:00N 51°51' W 008°17'1 1.9
2017-Nov-16 14:30N 51°51' W 008°16'1 3.0
2017-Nov-16 14:01N 51°49' W 008°16'1 2.0
2017-Nov-16 13:31N 51°50' W 008°16'0 0.1
2017-Nov-16 13:00N 51°50' W 008°16'0 0.2
2017-Nov-16 12:30N 51°50' W 008°16'0 0.6
2017-Nov-16 12:00N 51°50' W 008°16'1 2.4
2017-Nov-16 11:30N 51°51' W 008°18'1 2.7
2017-Nov-16 11:00N 51°51' W 008°20'1 2.6
2017-Nov-16 10:30N 51°53' W 008°20'0 0.1
2017-Nov-16 10:00N 51°53' W 008°20'3 6.6
2017-Nov-16 09:30N 51°54' W 008°25'1 1.8
2017-Nov-16 08:41N 51°54' W 008°27'0 0.0
2017-Nov-16 08:29N 51°54' W 008°27'0 0.0
2017-Nov-16 07:59N 51°54' W 008°27'0 0.0
2017-Nov-16 07:29N 51°54' W 008°27'0 0.0
2017-Nov-16 06:59N 51°54' W 008°27'0 0.0
2017-Nov-16 06:29N 51°54' W 008°27'0 0.0
2017-Nov-16 05:59N 51°54' W 008°27'0 0.0
2017-Nov-16 05:29N 51°54' W 008°27'0 0.0
2017-Nov-16 04:56N 51°54' W 008°27'0 0.0
2017-Nov-16 04:29N 51°54' W 008°27'0 0.0
2017-Nov-16 03:59N 51°54' W 008°27'0 0.0
2017-Nov-16 03:26N 51°54' W 008°27'0 0.0
2017-Nov-16 02:59N 51°54' W 008°27'0 0.0
2017-Nov-16 02:26N 51°54' W 008°27'0 0.0
2017-Nov-16 01:56N 51°54' W 008°27'0 0.0
2017-Nov-16 01:29N 51°54' W 008°27'0 0.0
2017-Nov-16 00:59N 51°54' W 008°27'0 0.0
2017-Nov-16 00:29N 51°54' W 008°27'0 0.0
2017-Nov-15 23:53N 51°54' W 008°27'0 0.0
2017-Nov-15 23:29N 51°54' W 008°27'0 0.0
2017-Nov-15 21:59N 51°54' W 008°27'0 0.0
2017-Nov-15 21:29N 51°54' W 008°27'0 0.0
2017-Nov-15 20:59N 51°54' W 008°27'0 0.0
2017-Nov-15 20:29N 51°54' W 008°27'0 0.0
2017-Nov-15 19:59N 51°54' W 008°27'0 0.0
2017-Nov-15 19:26N 51°54' W 008°27'0 0.0
2017-Nov-15 18:53N 51°54' W 008°27'0 0.0
2017-Nov-15 18:23N 51°54' W 008°27'0 0.0
2017-Nov-15 17:59N 51°54' W 008°27'0 0.0
2017-Nov-15 17:29N 51°54' W 008°27'0 0.2
2017-Nov-15 17:00N 51°54' W 008°27'3 6.6
2017-Nov-15 16:30N 51°53' W 008°22'3 6.8
2017-Nov-15 16:00N 51°50' W 008°19'2 5.0
2017-Nov-15 15:30N 51°49' W 008°16'4 8.8
2017-Nov-15 15:00N 51°45' W 008°14'3 6.9
2017-Nov-15 14:30N 51°41' W 008°13'3 5.9
2017-Nov-15 14:00N 51°44' W 008°15'3 6.2
2017-Nov-15 13:30N 51°47' W 008°15'3 5.8
2017-Nov-15 13:00N 51°50' W 008°16'1 1.2
2017-Nov-15 12:31N 51°49' W 008°16'1 1.1
2017-Nov-15 12:00N 51°50' W 008°16'0 1.0
2017-Nov-15 11:30N 51°50' W 008°16'1 2.4
2017-Nov-15 11:00N 51°51' W 008°17'1 1.6
2017-Nov-15 10:30N 51°51' W 008°19'2 4.2
2017-Nov-15 10:00N 51°52' W 008°20'2 4.6
2017-Nov-15 09:30N 51°54' W 008°23'3 5.4
2017-Nov-15 09:00N 51°54' W 008°27'0 0.0
2017-Nov-15 08:26N 51°54' W 008°27'0 0.0
2017-Nov-15 06:53N 51°54' W 008°27'0 0.0
2017-Nov-15 06:23N 51°54' W 008°27'0 0.0
2017-Nov-15 05:53N 51°54' W 008°27'0 0.0
2017-Nov-15 05:29N 51°54' W 008°27'0 0.0
2017-Nov-15 02:23N 51°54' W 008°27'0 0.0
2017-Nov-15 01:59N 51°54' W 008°27'0 0.0
2017-Nov-15 01:29N 51°54' W 008°27'0 0.0
2017-Nov-15 00:59N 51°54' W 008°27'0 0.0
2017-Nov-15 00:29N 51°54' W 008°27'0 0.0
2017-Nov-14 23:59N 51°54' W 008°27'0 0.0
2017-Nov-14 22:44N 51°54' W 008°27'0 0.0
2017-Nov-14 22:29N 51°54' W 008°27'0 0.0
2017-Nov-14 21:59N 51°54' W 008°27'0 0.0
2017-Nov-14 21:29N 51°54' W 008°27'0 0.0
2017-Nov-14 20:59N 51°54' W 008°27'0 0.0
2017-Nov-14 20:29N 51°54' W 008°27'0 0.0
2017-Nov-14 19:56N 51°54' W 008°27'0 0.0
2017-Nov-14 19:29N 51°54' W 008°27'0 0.0
2017-Nov-14 18:56N 51°54' W 008°27'0 0.0
2017-Nov-14 18:29N 51°54' W 008°27'0 0.0
2017-Nov-14 17:59N 51°54' W 008°27'0 0.0
2017-Nov-14 17:29N 51°54' W 008°27'1 2.1
2017-Nov-14 17:00N 51°54' W 008°26'4 7.7
2017-Nov-14 16:30N 51°53' W 008°20'3 5.5
2017-Nov-14 16:00N 51°51' W 008°17'4 7.0
2017-Nov-14 15:30N 51°47' W 008°16'4 8.5
2017-Nov-14 15:00N 51°45' W 008°11'2 3.5
2017-Nov-14 14:30N 51°43' W 008°11'2 4.8
2017-Nov-14 14:00N 51°45' W 008°13'2 4.7
2017-Nov-14 13:30N 51°47' W 008°15'3 6.8
2017-Nov-14 13:00N 51°50' W 008°16'1 2.2
2017-Nov-14 12:30N 51°49' W 008°16'1 1.4
2017-Nov-14 12:00N 51°50' W 008°16'1 1.3
2017-Nov-14 11:31N 51°50' W 008°16'1 2.7
2017-Nov-14 11:00N 51°51' W 008°18'1 2.4
2017-Nov-14 10:30N 51°50' W 008°20'2 4.1
2017-Nov-14 10:00N 51°53' W 008°20'3 6.2
2017-Nov-14 09:30N 51°54' W 008°24'2 3.6
2017-Nov-14 09:00N 51°54' W 008°27'0 0.0
2017-Nov-14 08:27N 51°54' W 008°27'0 0.0
2017-Nov-14 08:00N 51°54' W 008°27'0 0.0
2017-Nov-14 07:30N 51°54' W 008°27'0 0.0
2017-Nov-14 06:59N 51°54' W 008°27'0 0.0
2017-Nov-14 06:29N 51°54' W 008°27'0 0.0
2017-Nov-14 05:59N 51°54' W 008°27'0 0.0
2017-Nov-14 05:29N 51°54' W 008°27'0 0.0
2017-Nov-14 04:59N 51°54' W 008°27'0 0.0
2017-Nov-14 04:29N 51°54' W 008°27'0 0.0
2017-Nov-14 03:59N 51°54' W 008°27'0 0.0
2017-Nov-14 03:29N 51°54' W 008°27'0 0.0
2017-Nov-14 02:59N 51°54' W 008°27'0 0.0
2017-Nov-14 02:26N 51°54' W 008°27'0 0.0
2017-Nov-14 01:56N 51°54' W 008°27'0 0.0
2017-Nov-14 01:29N 51°54' W 008°27'0 0.0
2017-Nov-14 00:59N 51°54' W 008°27'0 0.0
2017-Nov-14 00:29N 51°54' W 008°27'0 0.0
2017-Nov-13 23:59N 51°54' W 008°27'0 0.0
2017-Nov-13 23:29N 51°54' W 008°27'0 0.0
2017-Nov-13 22:59N 51°54' W 008°27'0 0.0
2017-Nov-13 22:29N 51°54' W 008°27'0 0.0
2017-Nov-13 21:59N 51°54' W 008°27'0 0.0
2017-Nov-13 01:59N 51°54' W 008°27'0 0.0
2017-Nov-13 01:29N 51°54' W 008°27'0 0.0
2017-Nov-13 00:59N 51°54' W 008°27'0 0.0
2017-Nov-13 00:23N 51°54' W 008°27'0 0.0
2017-Nov-12 23:59N 51°54' W 008°27'0 0.0
2017-Nov-12 23:29N 51°54' W 008°27'0 0.0
2017-Nov-12 22:59N 51°54' W 008°27'0 0.0
2017-Nov-12 22:26N 51°54' W 008°27'0 0.0
2017-Nov-12 21:59N 51°54' W 008°27'0 0.0
2017-Nov-12 21:29N 51°54' W 008°27'0 0.0
2017-Nov-12 20:59N 51°54' W 008°27'0 0.0
2017-Nov-12 20:29N 51°54' W 008°27'0 0.0
2017-Nov-12 19:58N 51°54' W 008°27'0 0.0
2017-Nov-12 19:28N 51°54' W 008°27'0 0.0
2017-Nov-12 18:58N 51°54' W 008°27'0 0.0
2017-Nov-12 18:25N 51°54' W 008°27'0 0.0
2017-Nov-12 17:58N 51°54' W 008°27'0 0.0
2017-Nov-12 17:28N 51°54' W 008°27'0 0.0
2017-Nov-12 16:58N 51°54' W 008°27'0 0.0
2017-Nov-12 16:28N 51°54' W 008°27'0 0.0
2017-Nov-12 15:58N 51°54' W 008°27'0 0.0
2017-Nov-12 15:28N 51°54' W 008°27'0 0.0
2017-Nov-12 14:58N 51°54' W 008°27'0 0.0
2017-Nov-12 14:28N 51°54' W 008°27'0 0.0
2017-Nov-12 13:58N 51°54' W 008°27'0 0.0
2017-Nov-12 13:28N 51°54' W 008°27'0 0.0
2017-Nov-12 12:58N 51°54' W 008°27'0 0.0
2017-Nov-12 12:28N 51°54' W 008°27'0 0.0
2017-Nov-12 11:52N 51°54' W 008°27'0 0.0
2017-Nov-12 11:19N 51°54' W 008°27'0 0.0
2017-Nov-12 10:58N 51°54' W 008°27'0 0.0
2017-Nov-12 10:19N 51°54' W 008°27'0 0.0
2017-Nov-12 09:55N 51°54' W 008°27'0 0.0
2017-Nov-12 09:28N 51°54' W 008°27'0 0.0
2017-Nov-12 08:58N 51°54' W 008°27'0 0.0
2017-Nov-12 02:58N 51°54' W 008°27'0 0.0
2017-Nov-12 02:25N 51°54' W 008°27'0 0.0
2017-Nov-12 01:46N 51°54' W 008°27'0 0.0
2017-Nov-12 01:28N 51°54' W 008°27'0 0.0
2017-Nov-12 00:55N 51°54' W 008°27'0 0.0
2017-Nov-12 00:19N 51°54' W 008°27'0 0.0
2017-Nov-11 23:55N 51°54' W 008°27'0 0.0
2017-Nov-11 23:01N 51°54' W 008°27'0 0.0
2017-Nov-11 22:55N 51°54' W 008°27'0 0.0
2017-Nov-11 22:25N 51°54' W 008°27'0 0.0
2017-Nov-11 21:55N 51°54' W 008°27'0 0.0
2017-Nov-11 21:19N 51°54' W 008°27'0 0.0
2017-Nov-11 20:55N 51°54' W 008°27'0 0.0
2017-Nov-11 15:43N 51°54' W 008°27'0 0.0
2017-Nov-11 14:22N 51°54' W 008°27'0 0.0
2017-Nov-11 13:55N 51°54' W 008°27'0 0.0
2017-Nov-11 13:25N 51°54' W 008°27'0 0.0
2017-Nov-11 10:13N 51°54' W 008°27'0 0.0
2017-Nov-11 09:55N 51°54' W 008°27'0 0.0
2017-Nov-11 09:13N 51°54' W 008°27'0 0.0
2017-Nov-11 09:01N 51°54' W 008°27'0 0.0
2017-Nov-11 08:30N 51°54' W 008°27'0 0.0
2017-Nov-11 08:00N 51°54' W 008°27'0 0.0
2017-Nov-11 00:36N 51°54' W 008°27'0 0.1
2017-Nov-11 00:30N 51°54' W 008°27'0 0.0
2017-Nov-10 22:12N 51°54' W 008°27'0 0.0
2017-Nov-10 22:00N 51°54' W 008°27'0 0.0
2017-Nov-10 21:30N 51°54' W 008°27'0 0.0
2017-Nov-10 21:00N 51°54' W 008°27'0 0.0
2017-Nov-10 20:30N 51°54' W 008°27'0 0.0
2017-Nov-10 20:00N 51°54' W 008°27'0 0.0
2017-Nov-10 19:30N 51°54' W 008°27'0 0.0
2017-Nov-10 19:00N 51°54' W 008°27'0 0.0
2017-Nov-10 18:30N 51°54' W 008°27'0 0.0
2017-Nov-10 18:00N 51°54' W 008°27'0 0.0
2017-Nov-10 17:30N 51°54' W 008°27'0 0.0
2017-Nov-10 17:00N 51°54' W 008°27'0 0.0
2017-Nov-10 16:30N 51°54' W 008°27'0 0.0
2017-Nov-10 16:00N 51°54' W 008°27'0 0.0
2017-Nov-10 15:30N 51°54' W 008°27'0 0.0
2017-Nov-10 14:48N 51°54' W 008°27'0 0.0
2017-Nov-10 14:30N 51°54' W 008°27'0 0.0
2017-Nov-10 14:00N 51°54' W 008°27'2 4.9
2017-Nov-10 13:30N 51°54' W 008°23'4 7.4
2017-Nov-10 13:00N 51°51' W 008°20'3 5.2
2017-Nov-10 12:30N 51°50' W 008°16'4 7.2
2017-Nov-10 12:00N 51°47' W 008°13'5 9.3
2017-Nov-10 11:30N 51°46' W 008°06'5 9.6
2017-Nov-10 11:00N 51°48' W 007°59'5 9.4
2017-Nov-10 10:30N 51°51' W 007°52'5 9.6
2017-Nov-10 10:00N 51°53' W 007°46'13 9.4
2017-Nov-10 08:36N 52°02' W 007°29'2 9.3
2017-Nov-10 08:22N 52°03' W 007°27'3 9.5
2017-Nov-10 08:00N 52°05' W 007°21'5 9.4
2017-Nov-10 07:30N 52°06' W 007°14'5 9.3
2017-Nov-10 07:00N 52°05' W 007°06'5 9.5
2017-Nov-10 06:30N 52°04' W 006°59'5 9.5
2017-Nov-10 06:00N 52°03' W 006°51'13 9.0
2017-Nov-10 04:33N 52°04' W 006°30'1 9.5
2017-Nov-10 04:29N 52°05' W 006°30'5 9.5
2017-Nov-10 04:00N 52°07' W 006°23'5 9.5
2017-Nov-10 03:30N 52°10' W 006°17'5 9.8
2017-Nov-10 03:00N 52°14' W 006°13'4 9.0
2017-Nov-10 02:30N 52°18' W 006°10'4 9.0
2017-Nov-10 02:00N 52°23' W 006°09'5 8.8
2017-Nov-10 01:29N 52°27' W 006°07'4 8.3
2017-Nov-10 01:00N 52°31' W 006°06'  
Track history (hours):
 
Tides and Currents Weather Stations Pressure Air Temp Water Temp Dewpoint Dewpoint Depression Visibility Wind Speed Wind Dir Waves Ship Positions

Oceanographic research ship Celtic Voyager (Ireland)

Detailed information on ship capabilities available from University of Delaware's Ocean Information Center.

Last reported at 2017-Nov-20 00:07 UTC. Time now 2017-Nov-21 10:20 UTC.
Position N 51°54' W 008°27'.

Length 31 m; beam 8 m.

Type: Ship. MMSI: 250089000.

Date/timePositionNaut miles runAvg speedWind from/ knotsBaromVisibWave heightAir tempDewpointWater temp
2017-Nov-20 00:07N 51°54' W 008°27'0 0.0
2017-Nov-19 23:58N 51°54' W 008°27'0 0.0
2017-Nov-19 23:28N 51°54' W 008°27'0 0.0
2017-Nov-19 22:52N 51°54' W 008°27'0 0.0
2017-Nov-19 22:19N 51°54' W 008°27'0 0.0
2017-Nov-19 21:52N 51°54' W 008°27'0 0.0
2017-Nov-19 21:01N 51°54' W 008°27'0 0.0
2017-Nov-19 20:52N 51°54' W 008°27'0 0.0
2017-Nov-19 20:22N 51°54' W 008°27'0 0.0
2017-Nov-19 19:55N 51°54' W 008°27'0 0.0
2017-Nov-19 17:25N 51°54' W 008°27'0 0.0
2017-Nov-19 16:43N 51°54' W 008°27'0 0.4
2017-Nov-19 16:30N 51°54' W 008°27'3 6.9
2017-Nov-19 16:01N 51°53' W 008°22'4 7.7
2017-Nov-19 15:30N 51°51' W 008°17'1 1.2
2017-Nov-19 14:58N 51°51' W 008°16'0 0.0
2017-Nov-19 14:28N 51°51' W 008°16'0 0.0
2017-Nov-19 13:58N 51°51' W 008°16'0 0.9
2017-Nov-19 13:30N 51°50' W 008°16'1 1.3
2017-Nov-19 13:00N 51°49' W 008°16'0 0.3
2017-Nov-19 12:30N 51°50' W 008°16'0 0.3
2017-Nov-19 12:00N 51°50' W 008°16'1 2.6
2017-Nov-19 11:30N 51°51' W 008°17'2 3.3
2017-Nov-19 11:00N 51°51' W 008°20'2 3.9
2017-Nov-19 10:31N 51°53' W 008°20'0 0.3
2017-Nov-19 10:00N 51°53' W 008°21'3 6.8
2017-Nov-19 09:30N 51°54' W 008°26'1 2.0
2017-Nov-19 08:58N 51°54' W 008°27'0 0.0
2017-Nov-19 08:27N 51°54' W 008°27'0 0.0
2017-Nov-19 08:00N 51°54' W 008°27'0 0.0
2017-Nov-19 07:24N 51°54' W 008°27'0 0.0
2017-Nov-19 06:54N 51°54' W 008°27'0 0.0
2017-Nov-19 06:30N 51°54' W 008°27'0 0.0
2017-Nov-19 06:00N 51°54' W 008°27'0 0.0
2017-Nov-19 05:30N 51°54' W 008°27'0 0.0
2017-Nov-19 05:00N 51°54' W 008°27'0 0.0
2017-Nov-19 04:30N 51°54' W 008°27'0 0.0
2017-Nov-19 04:00N 51°54' W 008°27'0 0.0
2017-Nov-19 03:06N 51°54' W 008°27'0 0.0
2017-Nov-19 03:00N 51°54' W 008°27'0 0.0
2017-Nov-19 02:30N 51°54' W 008°27'0 0.0
2017-Nov-19 01:54N 51°54' W 008°27'0 0.0
2017-Nov-19 01:30N 51°54' W 008°27'0 0.0
2017-Nov-19 01:00N 51°54' W 008°27'0 0.0
2017-Nov-19 00:30N 51°54' W 008°27'0 0.0
2017-Nov-19 00:00N 51°54' W 008°27'0 0.0
2017-Nov-18 22:06N 51°54' W 008°27'0 0.0
2017-Nov-18 21:54N 51°54' W 008°27'0 0.0
2017-Nov-18 21:06N 51°54' W 008°27'0 0.0
2017-Nov-18 20:42N 51°54' W 008°27'0 0.0
2017-Nov-18 20:24N 51°54' W 008°27'0 0.0
2017-Nov-18 19:12N 51°54' W 008°27'0 0.0
2017-Nov-18 16:30N 51°54' W 008°27'2 3.7
2017-Nov-18 16:01N 51°54' W 008°24'4 8.8
2017-Nov-18 15:30N 51°51' W 008°20'3 6.8
2017-Nov-18 15:00N 51°48' W 008°16'510.4
2017-Nov-18 14:31N 51°43' W 008°15'5 9.8
2017-Nov-18 14:01N 51°38' W 008°15'2 3.8
2017-Nov-18 13:30N 51°36' W 008°15'1 2.6
2017-Nov-18 13:00N 51°38' W 008°15'3 5.2
2017-Nov-18 12:31N 51°40' W 008°15'4 8.3
2017-Nov-18 12:00N 51°44' W 008°15'2 4.8
2017-Nov-18 11:31N 51°47' W 008°16'4 8.1
2017-Nov-18 11:00N 51°51' W 008°16'1 2.2
2017-Nov-18 10:31N 51°51' W 008°18'1 1.4
2017-Nov-18 10:01N 51°51' W 008°19'4 8.1
2017-Nov-18 09:31N 51°54' W 008°23'3 5.7
2017-Nov-18 09:00N 51°54' W 008°27'0 0.0
2017-Nov-18 08:25N 51°54' W 008°27'0 0.0
2017-Nov-18 06:19N 51°54' W 008°27'0 0.0
2017-Nov-18 05:55N 51°54' W 008°27'0 0.0
2017-Nov-18 05:25N 51°54' W 008°27'0 0.0
2017-Nov-18 04:55N 51°54' W 008°27'0 0.0
2017-Nov-18 04:25N 51°54' W 008°27'0 0.0
2017-Nov-18 03:55N 51°54' W 008°27'0 0.0
2017-Nov-18 03:25N 51°54' W 008°27'0 0.0
2017-Nov-18 02:55N 51°54' W 008°27'0 0.0
2017-Nov-18 02:28N 51°54' W 008°27'0 0.0
2017-Nov-18 01:58N 51°54' W 008°27'0 0.0
2017-Nov-18 01:25N 51°54' W 008°27'0 0.0
2017-Nov-18 00:58N 51°54' W 008°27'0 0.0
2017-Nov-18 00:28N 51°54' W 008°27'0 0.0
2017-Nov-17 23:58N 51°54' W 008°27'0 0.0
2017-Nov-17 23:28N 51°54' W 008°27'0 0.0
2017-Nov-17 22:58N 51°54' W 008°27'0 0.0
2017-Nov-17 22:28N 51°54' W 008°27'0 0.0
2017-Nov-17 21:55N 51°54' W 008°27'0 0.0
2017-Nov-17 21:28N 51°54' W 008°27'0 0.0
2017-Nov-17 20:58N 51°54' W 008°27'0 0.0
2017-Nov-17 20:25N 51°54' W 008°27'0 0.0
2017-Nov-17 19:46N 51°54' W 008°27'0 0.0
2017-Nov-17 19:28N 51°54' W 008°27'0 0.0
2017-Nov-17 17:40N 51°54' W 008°27'0 0.2
2017-Nov-17 17:30N 51°54' W 008°27'4 7.2
2017-Nov-17 17:00N 51°53' W 008°22'3 5.2
2017-Nov-17 16:30N 51°51' W 008°20'2 4.9
2017-Nov-17 16:00N 51°50' W 008°16'5 9.8
2017-Nov-17 15:30N 51°45' W 008°15'4 8.6
2017-Nov-17 15:00N 51°42' W 008°11'2 4.8
2017-Nov-17 14:30N 51°40' W 008°08'0 0.8
2017-Nov-17 14:00N 51°41' W 008°08'0 0.1
2017-Nov-17 13:30N 51°41' W 008°08'1 2.7
2017-Nov-17 13:00N 51°41' W 008°10'3 6.9
2017-Nov-17 12:30N 51°43' W 008°15'4 8.1
2017-Nov-17 12:00N 51°47' W 008°16'2 4.5
2017-Nov-17 11:30N 51°50' W 008°16'1 2.9
2017-Nov-17 11:01N 51°51' W 008°18'0 0.1
2017-Nov-17 10:30N 51°51' W 008°18'1 2.4
2017-Nov-17 10:00N 51°50' W 008°19'4 7.8
2017-Nov-17 09:30N 51°54' W 008°23'3 5.6
2017-Nov-17 09:00N 51°54' W 008°27'0 0.0
2017-Nov-17 08:30N 51°54' W 008°27'0 0.0
2017-Nov-17 07:57N 51°54' W 008°27'0 0.0
2017-Nov-17 07:30N 51°54' W 008°27'0 0.0
2017-Nov-17 07:00N 51°54' W 008°27'0 0.0
2017-Nov-17 06:30N 51°54' W 008°27'0 0.0
2017-Nov-17 05:54N 51°54' W 008°27'0 0.0
2017-Nov-17 05:30N 51°54' W 008°27'0 0.0
2017-Nov-17 05:00N 51°54' W 008°27'0 0.0
2017-Nov-17 04:30N 51°54' W 008°27'0 0.0
2017-Nov-17 03:57N 51°54' W 008°27'0 0.0
2017-Nov-17 03:30N 51°54' W 008°27'0 0.0
2017-Nov-17 02:57N 51°54' W 008°27'0 0.0
2017-Nov-17 02:30N 51°54' W 008°27'0 0.0
2017-Nov-17 02:00N 51°54' W 008°27'0 0.0
2017-Nov-17 01:30N 51°54' W 008°27'0 0.0
2017-Nov-17 01:00N 51°54' W 008°27'0 0.0
2017-Nov-17 00:30N 51°54' W 008°27'0 0.0
2017-Nov-17 00:00N 51°54' W 008°27'0 0.0
2017-Nov-16 23:30N 51°54' W 008°27'0 0.0
2017-Nov-16 23:00N 51°54' W 008°27'0 0.0
2017-Nov-16 22:30N 51°54' W 008°27'0 0.0
2017-Nov-16 21:57N 51°54' W 008°27'0 0.0
2017-Nov-16 21:30N 51°54' W 008°27'0 0.0
2017-Nov-16 20:57N 51°54' W 008°27'0 0.0
2017-Nov-16 20:30N 51°54' W 008°27'0 0.0
2017-Nov-16 20:00N 51°54' W 008°27'0 0.0
2017-Nov-16 19:24N 51°54' W 008°27'0 0.0
2017-Nov-16 18:57N 51°54' W 008°27'0 0.0
2017-Nov-16 18:30N 51°54' W 008°27'0 0.0
2017-Nov-16 17:57N 51°54' W 008°27'0 0.0
2017-Nov-16 17:30N 51°54' W 008°27'0 0.0
2017-Nov-16 17:00N 51°54' W 008°27'1 2.1
2017-Nov-16 16:30N 51°54' W 008°26'2 4.0
2017-Nov-16 16:00N 51°54' W 008°23'3 6.5
2017-Nov-16 15:31N 51°51' W 008°20'2 3.1
2017-Nov-16 15:00N 51°51' W 008°17'1 1.9
2017-Nov-16 14:30N 51°51' W 008°16'1 3.0
2017-Nov-16 14:01N 51°49' W 008°16'1 2.0
2017-Nov-16 13:31N 51°50' W 008°16'0 0.1
2017-Nov-16 13:00N 51°50' W 008°16'0 0.2
2017-Nov-16 12:30N 51°50' W 008°16'0 0.6
2017-Nov-16 12:00N 51°50' W 008°16'1 2.4
2017-Nov-16 11:30N 51°51' W 008°18'1 2.7
2017-Nov-16 11:00N 51°51' W 008°20'1 2.6
2017-Nov-16 10:30N 51°53' W 008°20'0 0.1
2017-Nov-16 10:00N 51°53' W 008°20'3 6.6
2017-Nov-16 09:30N 51°54' W 008°25'1 1.8
2017-Nov-16 08:41N 51°54' W 008°27'0 0.0
2017-Nov-16 08:29N 51°54' W 008°27'0 0.0
2017-Nov-16 07:59N 51°54' W 008°27'0 0.0
2017-Nov-16 07:29N 51°54' W 008°27'0 0.0
2017-Nov-16 06:59N 51°54' W 008°27'0 0.0
2017-Nov-16 06:29N 51°54' W 008°27'0 0.0
2017-Nov-16 05:59N 51°54' W 008°27'0 0.0
2017-Nov-16 05:29N 51°54' W 008°27'0 0.0
2017-Nov-16 04:56N 51°54' W 008°27'0 0.0
2017-Nov-16 04:29N 51°54' W 008°27'0 0.0
2017-Nov-16 03:59N 51°54' W 008°27'0 0.0
2017-Nov-16 03:26N 51°54' W 008°27'0 0.0
2017-Nov-16 02:59N 51°54' W 008°27'0 0.0
2017-Nov-16 02:26N 51°54' W 008°27'0 0.0
2017-Nov-16 01:56N 51°54' W 008°27'0 0.0
2017-Nov-16 01:29N 51°54' W 008°27'0 0.0
2017-Nov-16 00:59N 51°54' W 008°27'0 0.0
2017-Nov-16 00:29N 51°54' W 008°27'0 0.0
2017-Nov-15 23:53N 51°54' W 008°27'0 0.0
2017-Nov-15 23:29N 51°54' W 008°27'0 0.0
2017-Nov-15 21:59N 51°54' W 008°27'0 0.0
2017-Nov-15 21:29N 51°54' W 008°27'0 0.0
2017-Nov-15 20:59N 51°54' W 008°27'0 0.0
2017-Nov-15 20:29N 51°54' W 008°27'0 0.0
2017-Nov-15 19:59N 51°54' W 008°27'0 0.0
2017-Nov-15 19:26N 51°54' W 008°27'0 0.0
2017-Nov-15 18:53N 51°54' W 008°27'0 0.0
2017-Nov-15 18:23N 51°54' W 008°27'0 0.0
2017-Nov-15 17:59N 51°54' W 008°27'0 0.0
2017-Nov-15 17:29N 51°54' W 008°27'0 0.2
2017-Nov-15 17:00N 51°54' W 008°27'3 6.6
2017-Nov-15 16:30N 51°53' W 008°22'3 6.8
2017-Nov-15 16:00N 51°50' W 008°19'2 5.0
2017-Nov-15 15:30N 51°49' W 008°16'4 8.8
2017-Nov-15 15:00N 51°45' W 008°14'3 6.9
2017-Nov-15 14:30N 51°41' W 008°13'3 5.9
2017-Nov-15 14:00N 51°44' W 008°15'3 6.2
2017-Nov-15 13:30N 51°47' W 008°15'3 5.8
2017-Nov-15 13:00N 51°50' W 008°16'1 1.2
2017-Nov-15 12:31N 51°49' W 008°16'1 1.1
2017-Nov-15 12:00N 51°50' W 008°16'0 1.0
2017-Nov-15 11:30N 51°50' W 008°16'1 2.4
2017-Nov-15 11:00N 51°51' W 008°17'1 1.6
2017-Nov-15 10:30N 51°51' W 008°19'2 4.2
2017-Nov-15 10:00N 51°52' W 008°20'2 4.6
2017-Nov-15 09:30N 51°54' W 008°23'3 5.4
2017-Nov-15 09:00N 51°54' W 008°27'0 0.0
2017-Nov-15 08:26N 51°54' W 008°27'0 0.0
2017-Nov-15 06:53N 51°54' W 008°27'0 0.0
2017-Nov-15 06:23N 51°54' W 008°27'0 0.0
2017-Nov-15 05:53N 51°54' W 008°27'0 0.0
2017-Nov-15 05:29N 51°54' W 008°27'0 0.0
2017-Nov-15 02:23N 51°54' W 008°27'0 0.0
2017-Nov-15 01:59N 51°54' W 008°27'0 0.0
2017-Nov-15 01:29N 51°54' W 008°27'0 0.0
2017-Nov-15 00:59N 51°54' W 008°27'0 0.0
2017-Nov-15 00:29N 51°54' W 008°27'0 0.0
2017-Nov-14 23:59N 51°54' W 008°27'0 0.0
2017-Nov-14 22:44N 51°54' W 008°27'0 0.0
2017-Nov-14 22:29N 51°54' W 008°27'0 0.0
2017-Nov-14 21:59N 51°54' W 008°27'0 0.0
2017-Nov-14 21:29N 51°54' W 008°27'0 0.0
2017-Nov-14 20:59N 51°54' W 008°27'0 0.0
2017-Nov-14 20:29N 51°54' W 008°27'0 0.0
2017-Nov-14 19:56N 51°54' W 008°27'0 0.0
2017-Nov-14 19:29N 51°54' W 008°27'0 0.0
2017-Nov-14 18:56N 51°54' W 008°27'0 0.0
2017-Nov-14 18:29N 51°54' W 008°27'0 0.0
2017-Nov-14 17:59N 51°54' W 008°27'0 0.0
2017-Nov-14 17:29N 51°54' W 008°27'1 2.1
2017-Nov-14 17:00N 51°54' W 008°26'4 7.7
2017-Nov-14 16:30N 51°53' W 008°20'3 5.5
2017-Nov-14 16:00N 51°51' W 008°17'4 7.0
2017-Nov-14 15:30N 51°47' W 008°16'4 8.5
2017-Nov-14 15:00N 51°45' W 008°11'2 3.5
2017-Nov-14 14:30N 51°43' W 008°11'2 4.8
2017-Nov-14 14:00N 51°45' W 008°13'2 4.7
2017-Nov-14 13:30N 51°47' W 008°15'3 6.8
2017-Nov-14 13:00N 51°50' W 008°16'1 2.2
2017-Nov-14 12:30N 51°49' W 008°16'1 1.4
2017-Nov-14 12:00N 51°50' W 008°16'1 1.3
2017-Nov-14 11:31N 51°50' W 008°16'1 2.7
2017-Nov-14 11:00N 51°51' W 008°18'1 2.4
2017-Nov-14 10:30N 51°50' W 008°20'2 4.1
2017-Nov-14 10:00N 51°53' W 008°20'3 6.2
2017-Nov-14 09:30N 51°54' W 008°24'2 3.6
2017-Nov-14 09:00N 51°54' W 008°27'0 0.0
2017-Nov-14 08:27N 51°54' W 008°27'0 0.0
2017-Nov-14 08:00N 51°54' W 008°27'0 0.0
2017-Nov-14 07:30N 51°54' W 008°27'0 0.0
2017-Nov-14 06:59N 51°54' W 008°27'0 0.0
2017-Nov-14 06:29N 51°54' W 008°27'0 0.0
2017-Nov-14 05:59N 51°54' W 008°27'0 0.0
2017-Nov-14 05:29N 51°54' W 008°27'0 0.0
2017-Nov-14 04:59N 51°54' W 008°27'0 0.0
2017-Nov-14 04:29N 51°54' W 008°27'0 0.0
2017-Nov-14 03:59N 51°54' W 008°27'0 0.0
2017-Nov-14 03:29N 51°54' W 008°27'0 0.0
2017-Nov-14 02:59N 51°54' W 008°27'0 0.0
2017-Nov-14 02:26N 51°54' W 008°27'0 0.0
2017-Nov-14 01:56N 51°54' W 008°27'0 0.0
2017-Nov-14 01:29N 51°54' W 008°27'0 0.0
2017-Nov-14 00:59N 51°54' W 008°27'0 0.0
2017-Nov-14 00:29N 51°54' W 008°27'0 0.0
2017-Nov-13 23:59N 51°54' W 008°27'0 0.0
2017-Nov-13 23:29N 51°54' W 008°27'0 0.0
2017-Nov-13 22:59N 51°54' W 008°27'0 0.0
2017-Nov-13 22:29N 51°54' W 008°27'0 0.0
2017-Nov-13 21:59N 51°54' W 008°27'0 0.0
2017-Nov-13 01:59N 51°54' W 008°27'0 0.0
2017-Nov-13 01:29N 51°54' W 008°27'0 0.0
2017-Nov-13 00:59N 51°54' W 008°27'0 0.0
2017-Nov-13 00:23N 51°54' W 008°27'0 0.0
2017-Nov-12 23:59N 51°54' W 008°27'0 0.0
2017-Nov-12 23:29N 51°54' W 008°27'0 0.0
2017-Nov-12 22:59N 51°54' W 008°27'0 0.0
2017-Nov-12 22:26N 51°54' W 008°27'0 0.0
2017-Nov-12 21:59N 51°54' W 008°27'0 0.0
2017-Nov-12 21:29N 51°54' W 008°27'0 0.0
2017-Nov-12 20:59N 51°54' W 008°27'0 0.0
2017-Nov-12 20:29N 51°54' W 008°27'0 0.0
2017-Nov-12 19:58N 51°54' W 008°27'0 0.0
2017-Nov-12 19:28N 51°54' W 008°27'0 0.0
2017-Nov-12 18:58N 51°54' W 008°27'0 0.0
2017-Nov-12 18:25N 51°54' W 008°27'0 0.0
2017-Nov-12 17:58N 51°54' W 008°27'0 0.0
2017-Nov-12 17:28N 51°54' W 008°27'0 0.0
2017-Nov-12 16:58N 51°54' W 008°27'0 0.0
2017-Nov-12 16:28N 51°54' W 008°27'0 0.0
2017-Nov-12 15:58N 51°54' W 008°27'0 0.0
2017-Nov-12 15:28N 51°54' W 008°27'0 0.0
2017-Nov-12 14:58N 51°54' W 008°27'0 0.0
2017-Nov-12 14:28N 51°54' W 008°27'0 0.0
2017-Nov-12 13:58N 51°54' W 008°27'0 0.0
2017-Nov-12 13:28N 51°54' W 008°27'0 0.0
2017-Nov-12 12:58N 51°54' W 008°27'0 0.0
2017-Nov-12 12:28N 51°54' W 008°27'0 0.0
2017-Nov-12 11:52N 51°54' W 008°27'0 0.0
2017-Nov-12 11:19N 51°54' W 008°27'0 0.0
2017-Nov-12 10:58N 51°54' W 008°27'0 0.0
2017-Nov-12 10:19N 51°54' W 008°27'0 0.0
2017-Nov-12 09:55N 51°54' W 008°27'0 0.0
2017-Nov-12 09:28N 51°54' W 008°27'0 0.0
2017-Nov-12 08:58N 51°54' W 008°27'0 0.0
2017-Nov-12 02:58N 51°54' W 008°27'0 0.0
2017-Nov-12 02:25N 51°54' W 008°27'0 0.0
2017-Nov-12 01:46N 51°54' W 008°27'0 0.0
2017-Nov-12 01:28N 51°54' W 008°27'0 0.0
2017-Nov-12 00:55N 51°54' W 008°27'0 0.0
2017-Nov-12 00:19N 51°54' W 008°27'0 0.0
2017-Nov-11 23:55N 51°54' W 008°27'0 0.0
2017-Nov-11 23:01N 51°54' W 008°27'0 0.0
2017-Nov-11 22:55N 51°54' W 008°27'0 0.0
2017-Nov-11 22:25N 51°54' W 008°27'0 0.0
2017-Nov-11 21:55N 51°54' W 008°27'0 0.0
2017-Nov-11 21:19N 51°54' W 008°27'0 0.0
2017-Nov-11 20:55N 51°54' W 008°27'0 0.0
2017-Nov-11 15:43N 51°54' W 008°27'0 0.0
2017-Nov-11 14:22N 51°54' W 008°27'0 0.0
2017-Nov-11 13:55N 51°54' W 008°27'0 0.0
2017-Nov-11 13:25N 51°54' W 008°27'0 0.0
2017-Nov-11 10:13N 51°54' W 008°27'0 0.0
2017-Nov-11 09:55N 51°54' W 008°27'0 0.0
2017-Nov-11 09:13N 51°54' W 008°27'0 0.0
2017-Nov-11 09:01N 51°54' W 008°27'0 0.0
2017-Nov-11 08:30N 51°54' W 008°27'0 0.0
2017-Nov-11 08:00N 51°54' W 008°27'0 0.0
2017-Nov-11 00:36N 51°54' W 008°27'0 0.1
2017-Nov-11 00:30N 51°54' W 008°27'0 0.0
2017-Nov-10 22:12N 51°54' W 008°27'0 0.0
2017-Nov-10 22:00N 51°54' W 008°27'0 0.0
2017-Nov-10 21:30N 51°54' W 008°27'0 0.0
2017-Nov-10 21:00N 51°54' W 008°27'0 0.0
2017-Nov-10 20:30N 51°54' W 008°27'0 0.0
2017-Nov-10 20:00N 51°54' W 008°27'0 0.0
2017-Nov-10 19:30N 51°54' W 008°27'0 0.0
2017-Nov-10 19:00N 51°54' W 008°27'0 0.0
2017-Nov-10 18:30N 51°54' W 008°27'0 0.0
2017-Nov-10 18:00N 51°54' W 008°27'0 0.0
2017-Nov-10 17:30N 51°54' W 008°27'0 0.0
2017-Nov-10 17:00N 51°54' W 008°27'0 0.0
2017-Nov-10 16:30N 51°54' W 008°27'0 0.0
2017-Nov-10 16:00N 51°54' W 008°27'0 0.0
2017-Nov-10 15:30N 51°54' W 008°27'0 0.0
2017-Nov-10 14:48N 51°54' W 008°27'0 0.0
2017-Nov-10 14:30N 51°54' W 008°27'0 0.0
2017-Nov-10 14:00N 51°54' W 008°27'2 4.9
2017-Nov-10 13:30N 51°54' W 008°23'4 7.4
2017-Nov-10 13:00N 51°51' W 008°20'3 5.2
2017-Nov-10 12:30N 51°50' W 008°16'4 7.2
2017-Nov-10 12:00N 51°47' W 008°13'5 9.3
2017-Nov-10 11:30N 51°46' W 008°06'5 9.6
2017-Nov-10 11:00N 51°48' W 007°59'5 9.4
2017-Nov-10 10:30N 51°51' W 007°52'5 9.6
2017-Nov-10 10:00N 51°53' W 007°46'13 9.4
2017-Nov-10 08:36N 52°02' W 007°29'2 9.3
2017-Nov-10 08:22N 52°03' W 007°27'3 9.5
2017-Nov-10 08:00N 52°05' W 007°21'5 9.4
2017-Nov-10 07:30N 52°06' W 007°14'5 9.3
2017-Nov-10 07:00N 52°05' W 007°06'5 9.5
2017-Nov-10 06:30N 52°04' W 006°59'5 9.5
2017-Nov-10 06:00N 52°03' W 006°51'13 9.0
2017-Nov-10 04:33N 52°04' W 006°30'1 9.5
2017-Nov-10 04:29N 52°05' W 006°30'5 9.5
2017-Nov-10 04:00N 52°07' W 006°23'5 9.5
2017-Nov-10 03:30N 52°10' W 006°17'5 9.8
2017-Nov-10 03:00N 52°14' W 006°13'4 9.0
2017-Nov-10 02:30N 52°18' W 006°10'4 9.0
2017-Nov-10 02:00N 52°23' W 006°09'5 8.8
2017-Nov-10 01:29N 52°27' W 006°07'4 8.3
2017-Nov-10 01:00N 52°31' W 006°06'  

Dump ship's entire track history